• Join FlightAware (Why Join?)
  • Login
  • US Flag 
09:26AM EDT


 

Airport Tracker/Info


-or-


 

Live Flight TrackerFlight Track Log ✈ N7591N ✈ 10-Jul-2013 ✈ KFFA - KSOP

Flight Track Log - Related Links

Times and Time Zones

All times are in EDT time to prevent confusion due to time zone crossing. See the N7591N flight status page for this flight to view local times or setup timezone preferences in your user account.

Time Position Orientation Groundspeed Altitude Reporting Facility
EDT Latitude Longitude Course Direction KTS MPH feet Rate Location/Type
02:19PM 36.0078 -75.7769 360° North 158 182 2,400  Level Washington Center
02:20PM 36.0033 -75.8128 261° West 132 152 2,800 180 Climbing Washington Center
02:21PM 35.9931 -75.8564 254° West 126 145 2,800 -60 Level Washington Center
02:22PM 35.9844 -75.9025 257° West 126 145 2,700  Descending Washington Center
02:23PM 35.9803 -75.9489 264° West 133 153 2,800  Climbing Washington Center
02:24PM 35.9722 -75.9415 260° West  Level FlightAware Approximate
02:24PM 35.9758 -75.9950 263° West 133 153 2,700  Level Washington Center
02:25PM 35.9675 -76.0436 258° West 145 167 2,700  Level Washington Center
02:26PM 35.9567 -76.0897 254° West 145 167 2,700  Level Washington Center
02:27PM 35.9483 -76.1358 257° West 145 167 2,700  Level Washington Center
02:28PM 35.9439 -76.1822 263° West 145 167 2,800  Climbing Washington Center
02:29PM 35.9414 -76.2308 266° West 145 167 2,700 -60 Descending Washington Center
02:30PM 35.9433 -76.2769 273° West 145 167 2,700  Level Washington Center
02:31PM 35.9431 -76.3258 270° West 139 160 2,800  Climbing Washington Center
02:32PM 35.9386 -76.3719 263° West 139 160 2,700 -120 Descending Washington Center
02:33PM 35.9342 -76.4206 264° West 144 166 2,600 -60 Descending Washington Center
02:34PM 35.9381 -76.4642 276° West 139 160 2,600  Level Washington Center
02:35PM 35.9500 -76.5106 288° West 139 160 2,700 60 Climbing Washington Center
02:36PM 35.9539 -76.5569 276° West 144 166 2,800  Climbing Washington Center
02:37PM 35.9514 -76.6031 266° West 144 166 2,800  Level Washington Center
02:38PM 35.9367 -76.6414 245° Southwest 144 166 2,800  Level Washington Center
02:39PM 35.9111 -76.6767 228° Southwest 139 160 2,800  Level Washington Center
02:40PM 35.8900 -76.7125 234° Southwest 139 160 2,800  Level Washington Center
02:41PM 35.8667 -76.7506 233° Southwest 139 160 2,800 -60 Level Washington Center
02:43PM 35.8741 -76.8041 280° West  Level FlightAware Approximate
02:46PM 35.7689 -76.9181 280° West 139 160 2,500  Level Washington Center
02:47PM 35.7561 -76.9408 235° Southwest 139 160 2,500  Level Washington Center
02:49PM 35.7561 -76.9408 292° West 139 160 2,500  Level Washington Center
02:50PM 35.9218 -77.1503 280° West  Level FlightAware Approximate
02:51PM 35.9285 -77.1998 280° West  Level FlightAware Approximate
02:51PM 35.7561 -76.9408 292° West 139 160 2,500  Level Washington Center
02:52PM 35.6328 -77.1381 232° Southwest 165 190 2,800 120 Climbing Washington Center
02:53PM 35.6053 -77.1786 230° Southwest 160 184 2,800  Level Washington Center
02:54PM 35.5839 -77.2139 233° Southwest 147 169 2,800  Level Washington Center
02:55PM 35.5747 -77.2597 256° West 140 161 2,800  Level Washington Center
02:56PM 35.5700 -77.3081 263° West 140 161 2,800  Level Washington Center
02:57PM 35.5650 -77.3589 263° West 146 168 2,800  Level Washington Center
02:58PM 35.5581 -77.4047 259° West 146 168 2,800  Level Washington Center
02:59PM 35.5533 -77.4533 263° West 141 162 2,800  Level Washington Center
03:00PM 35.5483 -77.5017 263° West 141 162 2,800  Level Washington Center
03:01PM 35.5372 -77.5472 253° West 141 162 2,800  Level Washington Center
03:02PM 35.5197 -77.5903 243° Southwest 147 169 2,800  Level Washington Center
03:03PM 35.4978 -77.6508 246° West 139 160 2,800  Level Washington Center
03:04PM 35.4844 -77.6992 251° West 141 162 2,800  Level Washington Center
03:05PM 35.4669 -77.7394 242° Southwest 139 160 2,800  Level Washington Center
03:06PM 35.4536 -77.7850 250° West 141 162 2,800  Level Washington Center
03:07PM 35.4342 -77.8278 241° Southwest 140 161 2,800  Level Washington Center
03:08PM 35.4167 -77.8706 243° Southwest 137 158 2,800  Level Washington Center
03:09PM 35.3992 -77.9083 240° Southwest 135 155 2,800  Level Washington Center
03:10PM 35.3733 -77.9508 233° Southwest 144 166 2,800  Level Washington Center
03:11PM 35.3578 -77.9936 246° West 141 162 2,800  Level Washington Center
03:12PM 35.3361 -78.0414 241° Southwest 145 167 2,800  Level Washington Center
03:13PM 35.3186 -78.0817 242° Southwest 148 170 2,800  Level Washington Center
03:14PM 35.2967 -78.1317 242° Southwest 145 167 2,800  Level Washington Center
03:15PM 35.2792 -78.1694 240° Southwest 144 166 2,800  Level Washington Center
03:16PM 35.2594 -78.2144 242° Southwest 142 163 2,800  Level Washington Center
03:17PM 35.2417 -78.2572 243° Southwest 142 163 2,800  Level Washington Center
03:18PM 35.2239 -78.3025 244° Southwest 143 165 2,800  Level Washington Center
03:20PM 35.2375 -78.3553 288° West  Level FlightAware Approximate
03:27PM 35.2387 -78.6971 265° West  Level Estimated
03:28PM 35.2382 -78.7459 269° West  Level FlightAware Approximate
03:29PM 35.2378 -78.7947 269° West  Level FlightAware Approximate
03:30PM 35.2373 -78.8436 269° West  Level FlightAware Approximate
03:31PM 35.2368 -78.8924 269° West  Level FlightAware Approximate
03:32PM 35.2363 -78.9412 269° West  Level FlightAware Approximate
03:33PM 35.2358 -78.9901 269° West  Level FlightAware Approximate
03:34PM 35.2353 -79.0389 269° West  Level FlightAware Approximate
03:35PM 35.2347 -79.0877 269° West  Level FlightAware Approximate
03:36PM 35.2341 -79.1366 269° West  Level FlightAware Approximate
03:37PM 35.2335 -79.1854 269° West  Level FlightAware Approximate
03:38PM 35.2334 -79.2412 270° West  Level FlightAware Approximate
03:39PM 35.2334 -79.2901 270° West  Level FlightAware Approximate
03:40PM 35.2334 -79.3389 270° West  Level FlightAware Approximate
03:41PM 35.2333 -79.3833 270° West  Level FlightAware Approximate
03:42PM 35.2380 -79.3883 270° West  Level Estimated
03:43PM 35.2333 -79.3833 270° West  Level FlightAware Approximate
03:44PM 35.2380 -79.3883 270° West  Level Estimated
03:45PM 35.2333 -79.3833 270° West  Level FlightAware Approximate
03:46PM 35.2380 -79.3883 270° West  Level Estimated
03:47PM 35.2333 -79.3833 270° West  Level FlightAware Approximate
03:48PM 35.2380 -79.3883 270° West  Level Estimated
03:49PM 35.2333 -79.3833 270° West  Level FlightAware Approximate
03:50PM 35.2380 -79.3883 270° West  Level Estimated